Friday, December 14, 2018, 6:57 PM EST
Back to Local

KHWV, Shirley Brookhaven Airport

Location: Shirley, NY, United States Lat: 40.817
Local Time: 6:57 PM EST (23:57 GMT) Lon: -72.867
Time Zone: US/Eastern Elev: 82 ft

Show me the last for .
Show Decoded

2018-12-14 17:56 METAR KHWV 142256Z AUTO 00000KT 10SM FEW070 OVC100 08/06 A3036 RMK AO2 SLP280
                 T00780061 =
2018-12-14 16:56 METAR KHWV 142156Z AUTO 00000KT 10SM OVC070 08/06 A3038 RMK AO2 SLP288 T00830061
                 =
2018-12-14 15:56 METAR KHWV 142056Z AUTO 13003KT 10SM FEW013 BKN070 09/06 A3038 RMK AO2 SLP289
                 T00890061 58002 =
2018-12-14 15:47 METAR KHWV 142047Z AUTO 14004KT 10SM SCT013 BKN075 08/06 A3039 RMK AO2 T00830061
                 =
2018-12-14 14:56 METAR KHWV 141956Z AUTO 15005KT 10SM OVC020 09/06 A3039 RMK AO2 SLP292 T00940061
                 =
2018-12-14 13:56 METAR KHWV 141856Z AUTO 14008KT 10SM OVC023 09/06 A3039 RMK AO2 SLP292 T00940061
                 =
2018-12-14 13:21 METAR KHWV 141821Z AUTO 15008KT 10SM BKN022 09/06 A3039 RMK AO2 T00940056 =
2018-12-14 12:56 METAR KHWV 141756Z AUTO 14008KT 10SM FEW015 09/06 A3039 RMK AO2 SLP291 60000
                 T00940056 10094 21006 56039 =
2018-12-14 12:45 METAR KHWV 141745Z AUTO 15009KT 10SM SCT016 09/06 A3040 RMK AO2 T00940056 =
2018-12-14 12:18 METAR KHWV 141718Z AUTO 13007KT 100V160 10SM BKN019 09/05 A3041 RMK AO2
                 T00940050 =
2018-12-14 11:56 METAR KHWV 141656Z AUTO 14006KT 10SM FEW060 09/05 A3042 RMK AO2 SLP302 T00940050
                 =
2018-12-14 10:56 METAR KHWV 141556Z AUTO 15010KT 10SM FEW060 09/04 A3047 RMK AO2 SLP318 T00890039
                 =
2018-12-14 09:56 METAR KHWV 141456Z AUTO VRB06KT 10SM FEW024 08/03 A3051 RMK AO2 SLP331 60000
                 T00830033 50003 =
2018-12-14 09:35 METAR KHWV 141435Z AUTO 14004KT 10SM BKN024 07/03 A3052 RMK AO2 T00720033 =
2018-12-14 09:04 METAR KHWV 141404Z AUTO 00000KT 10SM SCT024 04/02 A3051 RMK AO2 T00440022 =
2018-12-14 08:56 METAR KHWV 141356Z AUTO 03003KT 10SM BKN024 04/02 A3051 RMK AO2 UPE05 SLP330
                 P0000 T00390017 =
2018-12-14 07:56 METAR KHWV 141256Z AUTO 00000KT 8SM UP BKN022 00/M01 A3050 RMK AO2 UPB51 SLP328
                 P0000 T00001011 =
2018-12-14 07:29 METAR KHWV 141229Z AUTO 00000KT 7SM BKN021 M01/M01 A3049 RMK AO2 T10061011 =
2018-12-14 06:56 METAR KHWV 141156Z AUTO 00000KT 8SM SCT022 00/M01 A3049 RMK AO2 SLP323 T00001011
                 10050 21011 55001 =
2018-12-14 05:56 METAR KHWV 141056Z AUTO 00000KT 10SM CLR 01/M01 A3048 RMK AO2 SLP320 T00111006 =
2018-12-14 04:56 METAR KHWV 140956Z AUTO 00000KT 10SM FEW021 03/01 A3048 RMK AO2 SLP323 T00280006
                 =
2018-12-14 03:56 METAR KHWV 140856Z AUTO 11004KT 10SM CLR 04/01 A3049 RMK AO2 SLP324 T00390011
                 56006 =
2018-12-14 02:56 METAR KHWV 140756Z AUTO VRB03KT 10SM CLR 04/02 A3049 RMK AO2 SLP324 T00390017 =
2018-12-14 01:56 METAR KHWV 140656Z AUTO VRB04KT 10SM FEW040 04/02 A3050 RMK AO2 SLP328 T00440017
                 =
2018-12-14 00:56 METAR KHWV 140556Z AUTO VRB03KT 10SM FEW021 BKN037 05/02 A3050 RMK AO2 SLP330
                 60000 T00500022 10056 20044 53002 =
2018-12-13 23:56 METAR KHWV 140456Z AUTO VRB03KT 10SM OVC020 06/02 A3050 RMK AO2 SLP329 T00560022
                 400561033 =
2018-12-13 22:56 METAR KHWV 140356Z AUTO 11005KT 10SM BKN022 OVC040 06/02 A3050 RMK AO2 SLP328
                 T00560022 =
2018-12-13 21:56 METAR KHWV 140256Z AUTO 10SM OVC019 06/02 A3050 RMK AO2 SLP328 60000 T00560022
                 51006 =
2018-12-13 20:56 METAR KHWV 140156Z AUTO VRB04KT 10SM OVC017 06/02 A3050 RMK AO2 SLP327 T00560022
                 =
2018-12-13 19:56 METAR KHWV 140056Z AUTO VRB05KT 10SM OVC017 05/02 A3048 RMK AO2 RAE11 SLP323
                 P0000 T00500017 =

Support USWX by starting your Amazon purchase here.